sensor_id;sensor_type;location;lat;lon;timestamp;temperature;humidity
2867;DHT22;1441;48.886;8.728;2022-10-15T00:00:39;15.20;99.90
2867;DHT22;1441;48.886;8.728;2022-10-15T00:03:05;15.10;99.90
2867;DHT22;1441;48.886;8.728;2022-10-15T00:05:30;15.20;99.90
2867;DHT22;1441;48.886;8.728;2022-10-15T00:07:56;15.20;99.90
2867;DHT22;1441;48.886;8.728;2022-10-15T00:10:22;15.10;99.90
2867;DHT22;1441;48.886;8.728;2022-10-15T00:12:48;15.20;99.90
2867;DHT22;1441;48.886;8.728;2022-10-15T00:15:13;15.30;99.90
2867;DHT22;1441;48.886;8.728;2022-10-15T00:17:39;15.30;99.90
2867;DHT22;1441;48.886;8.728;2022-10-15T00:20:07;15.30;99.90
2867;DHT22;1441;48.886;8.728;2022-10-15T00:22:33;15.20;99.90
2867;DHT22;1441;48.886;8.728;2022-10-15T00:24:59;15.20;99.90
2867;DHT22;1441;48.886;8.728;2022-10-15T00:27:25;15.20;99.90
2867;DHT22;1441;48.886;8.728;2022-10-15T00:29:50;15.30;99.90
2867;DHT22;1441;48.886;8.728;2022-10-15T00:32:16;15.30;99.90
2867;DHT22;1441;48.886;8.728;2022-10-15T00:34:41;15.30;99.90
2867;DHT22;1441;48.886;8.728;2022-10-15T00:37:07;15.20;99.90
2867;DHT22;1441;48.886;8.728;2022-10-15T00:39:33;15.20;99.90
2867;DHT22;1441;48.886;8.728;2022-10-15T00:41:59;15.30;99.90
2867;DHT22;1441;48.886;8.728;2022-10-15T00:47:37;15.40;99.90
2867;DHT22;1441;48.886;8.728;2022-10-15T00:50:06;15.40;99.90
2867;DHT22;1441;48.886;8.728;2022-10-15T00:53:00;15.50;99.90
2867;DHT22;1441;48.886;8.728;2022-10-15T00:55:35;15.40;99.90
2867;DHT22;1441;48.886;8.728;2022-10-15T00:58:08;15.50;99.90
2867;DHT22;1441;48.886;8.728;2022-10-15T01:00:35;15.50;99.90
2867;DHT22;1441;48.886;8.728;2022-10-15T01:03:01;15.60;99.90
2867;DHT22;1441;48.886;8.728;2022-10-15T01:05:27;15.60;99.90
2867;DHT22;1441;48.886;8.728;2022-10-15T01:07:53;15.60;99.90
2867;DHT22;1441;48.886;8.728;2022-10-15T01:10:19;15.60;99.90
2867;DHT22;1441;48.886;8.728;2022-10-15T01:18:27;15.50;99.90
2867;DHT22;1441;48.886;8.728;2022-10-15T01:21:18;15.40;99.90
2867;DHT22;1441;48.886;8.728;2022-10-15T01:32:02;15.30;99.90
2867;DHT22;1441;48.886;8.728;2022-10-15T01:34:39;15.30;99.90
2867;DHT22;1441;48.886;8.728;2022-10-15T01:37:23;15.20;99.90
2867;DHT22;1441;48.886;8.728;2022-10-15T01:39:55;15.30;99.90
2867;DHT22;1441;48.886;8.728;2022-10-15T01:42:42;15.30;99.90
2867;DHT22;1441;48.886;8.728;2022-10-15T01:45:13;15.30;99.90
2867;DHT22;1441;48.886;8.728;2022-10-15T01:50:14;15.50;99.90
2867;DHT22;1441;48.886;8.728;2022-10-15T01:52:41;15.40;99.90
2867;DHT22;1441;48.886;8.728;2022-10-15T01:55:10;15.30;99.90
2867;DHT22;1441;48.886;8.728;2022-10-15T01:57:38;15.30;99.90
2867;DHT22;1441;48.886;8.728;2022-10-15T02:00:06;15.30;99.90
2867;DHT22;1441;48.886;8.728;2022-10-15T02:02:31;15.20;99.90
2867;DHT22;1441;48.886;8.728;2022-10-15T02:04:57;15.20;99.90
2867;DHT22;1441;48.886;8.728;2022-10-15T02:07:54;15.30;99.90
2867;DHT22;1441;48.886;8.728;2022-10-15T02:10:26;15.30;99.90
2867;DHT22;1441;48.886;8.728;2022-10-15T02:15:59;15.20;99.90
2867;DHT22;1441;48.886;8.728;2022-10-15T02:18:54;15.30;99.90
2867;DHT22;1441;48.886;8.728;2022-10-15T02:21:37;15.30;99.90
2867;DHT22;1441;48.886;8.728;2022-10-15T02:24:12;15.30;99.90
2867;DHT22;1441;48.886;8.728;2022-10-15T02:26:40;15.40;99.90
2867;DHT22;1441;48.886;8.728;2022-10-15T02:29:09;15.40;99.90
2867;DHT22;1441;48.886;8.728;2022-10-15T02:31:39;15.40;99.90
2867;DHT22;1441;48.886;8.728;2022-10-15T02:34:08;15.40;99.90
2867;DHT22;1441;48.886;8.728;2022-10-15T02:36:38;15.40;99.90
2867;DHT22;1441;48.886;8.728;2022-10-15T02:39:07;15.40;99.90
2867;DHT22;1441;48.886;8.728;2022-10-15T02:41:35;15.40;99.90
2867;DHT22;1441;48.886;8.728;2022-10-15T02:44:02;15.40;99.90
2867;DHT22;1441;48.886;8.728;2022-10-15T02:46:27;15.40;99.90
2867;DHT22;1441;48.886;8.728;2022-10-15T02:48:53;15.50;99.90
2867;DHT22;1441;48.886;8.728;2022-10-15T02:51:18;15.50;99.90
2867;DHT22;1441;48.886;8.728;2022-10-15T02:53:44;15.50;99.90
2867;DHT22;1441;48.886;8.728;2022-10-15T02:56:09;15.50;99.90
2867;DHT22;1441;48.886;8.728;2022-10-15T02:58:35;15.40;99.90
2867;DHT22;1441;48.886;8.728;2022-10-15T03:01:01;15.50;99.90
2867;DHT22;1441;48.886;8.728;2022-10-15T03:03:26;15.50;99.90
2867;DHT22;1441;48.886;8.728;2022-10-15T03:05:52;15.50;99.90
2867;DHT22;1441;48.886;8.728;2022-10-15T03:08:17;15.50;99.90
2867;DHT22;1441;48.886;8.728;2022-10-15T03:10:43;15.50;99.90
2867;DHT22;1441;48.886;8.728;2022-10-15T03:13:10;15.60;99.90
2867;DHT22;1441;48.886;8.728;2022-10-15T03:15:35;15.50;99.90
2867;DHT22;1441;48.886;8.728;2022-10-15T03:18:01;15.50;99.90
2867;DHT22;1441;48.886;8.728;2022-10-15T03:20:27;15.50;99.90
2867;DHT22;1441;48.886;8.728;2022-10-15T03:22:52;15.50;99.90
2867;DHT22;1441;48.886;8.728;2022-10-15T03:25:18;15.60;99.90
2867;DHT22;1441;48.886;8.728;2022-10-15T03:27:43;15.60;99.90
2867;DHT22;1441;48.886;8.728;2022-10-15T03:30:09;15.60;99.90
2867;DHT22;1441;48.886;8.728;2022-10-15T03:32:35;15.50;99.90
2867;DHT22;1441;48.886;8.728;2022-10-15T03:35:00;15.60;99.90
2867;DHT22;1441;48.886;8.728;2022-10-15T03:37:26;15.60;99.90
2867;DHT22;1441;48.886;8.728;2022-10-15T03:39:51;15.50;99.90
2867;DHT22;1441;48.886;8.728;2022-10-15T03:42:17;15.50;99.90
2867;DHT22;1441;48.886;8.728;2022-10-15T03:44:43;15.50;99.90
2867;DHT22;1441;48.886;8.728;2022-10-15T03:47:08;15.50;99.90
2867;DHT22;1441;48.886;8.728;2022-10-15T03:49:34;15.50;99.90
2867;DHT22;1441;48.886;8.728;2022-10-15T03:51:59;15.40;99.90
2867;DHT22;1441;48.886;8.728;2022-10-15T03:54:25;15.40;99.90
2867;DHT22;1441;48.886;8.728;2022-10-15T03:56:51;15.50;99.90
2867;DHT22;1441;48.886;8.728;2022-10-15T03:59:16;15.50;99.90
2867;DHT22;1441;48.886;8.728;2022-10-15T04:01:42;15.50;99.90
2867;DHT22;1441;48.886;8.728;2022-10-15T04:04:10;15.40;99.90
2867;DHT22;1441;48.886;8.728;2022-10-15T04:06:36;15.40;99.90
2867;DHT22;1441;48.886;8.728;2022-10-15T04:09:02;15.50;99.90
2867;DHT22;1441;48.886;8.728;2022-10-15T04:11:27;15.40;99.90
2867;DHT22;1441;48.886;8.728;2022-10-15T04:13:53;15.40;99.90
2867;DHT22;1441;48.886;8.728;2022-10-15T04:16:18;15.40;99.90
2867;DHT22;1441;48.886;8.728;2022-10-15T04:18:44;15.40;99.90
2867;DHT22;1441;48.886;8.728;2022-10-15T04:21:10;15.40;99.90
2867;DHT22;1441;48.886;8.728;2022-10-15T04:23:35;15.40;99.90
2867;DHT22;1441;48.886;8.728;2022-10-15T04:26:01;15.40;99.90
2867;DHT22;1441;48.886;8.728;2022-10-15T04:28:27;15.40;99.90
2867;DHT22;1441;48.886;8.728;2022-10-15T04:30:57;15.40;99.90
2867;DHT22;1441;48.886;8.728;2022-10-15T04:33:23;15.40;99.90
2867;DHT22;1441;48.886;8.728;2022-10-15T04:36:04;15.40;99.90
2867;DHT22;1441;48.886;8.728;2022-10-15T04:38:30;15.40;99.90
2867;DHT22;1441;48.886;8.728;2022-10-15T04:41:01;15.40;99.90
2867;DHT22;1441;48.886;8.728;2022-10-15T04:43:27;15.40;99.90
2867;DHT22;1441;48.886;8.728;2022-10-15T04:45:55;15.40;99.90
2867;DHT22;1441;48.886;8.728;2022-10-15T04:48:21;15.40;99.90
2867;DHT22;1441;48.886;8.728;2022-10-15T04:50:47;15.50;99.90
2867;DHT22;1441;48.886;8.728;2022-10-15T04:53:12;15.50;99.90
2867;DHT22;1441;48.886;8.728;2022-10-15T04:55:38;15.50;99.90
2867;DHT22;1441;48.886;8.728;2022-10-15T04:58:03;15.50;99.90
2867;DHT22;1441;48.886;8.728;2022-10-15T05:00:29;15.50;99.90
2867;DHT22;1441;48.886;8.728;2022-10-15T05:02:54;15.50;99.90
2867;DHT22;1441;48.886;8.728;2022-10-15T05:05:20;15.40;99.90
2867;DHT22;1441;48.886;8.728;2022-10-15T05:07:45;15.50;99.90
2867;DHT22;1441;48.886;8.728;2022-10-15T05:10:11;15.50;99.90
2867;DHT22;1441;48.886;8.728;2022-10-15T05:12:36;15.40;99.90
2867;DHT22;1441;48.886;8.728;2022-10-15T05:15:02;15.40;99.90
2867;DHT22;1441;48.886;8.728;2022-10-15T05:17:29;15.40;99.90
2867;DHT22;1441;48.886;8.728;2022-10-15T05:19:55;15.30;99.90
2867;DHT22;1441;48.886;8.728;2022-10-15T05:22:20;15.30;99.90
2867;DHT22;1441;48.886;8.728;2022-10-15T05:24:46;15.30;99.90
2867;DHT22;1441;48.886;8.728;2022-10-15T05:27:11;15.30;99.90
2867;DHT22;1441;48.886;8.728;2022-10-15T05:29:37;15.30;99.90
2867;DHT22;1441;48.886;8.728;2022-10-15T05:32:04;15.30;99.90
2867;DHT22;1441;48.886;8.728;2022-10-15T05:34:29;15.20;99.90
2867;DHT22;1441;48.886;8.728;2022-10-15T05:36:55;15.20;99.90
2867;DHT22;1441;48.886;8.728;2022-10-15T05:39:21;15.20;99.90
2867;DHT22;1441;48.886;8.728;2022-10-15T05:41:46;15.20;99.90
2867;DHT22;1441;48.886;8.728;2022-10-15T05:44:12;15.20;99.90
2867;DHT22;1441;48.886;8.728;2022-10-15T05:46:37;15.20;99.90
2867;DHT22;1441;48.886;8.728;2022-10-15T05:49:03;15.20;99.90
2867;DHT22;1441;48.886;8.728;2022-10-15T05:51:28;15.20;99.90
2867;DHT22;1441;48.886;8.728;2022-10-15T05:53:55;15.20;99.90
2867;DHT22;1441;48.886;8.728;2022-10-15T05:56:21;15.20;99.90
2867;DHT22;1441;48.886;8.728;2022-10-15T05:58:47;15.20;99.90
2867;DHT22;1441;48.886;8.728;2022-10-15T06:01:13;15.20;99.90
2867;DHT22;1441;48.886;8.728;2022-10-15T06:03:40;15.20;99.90
2867;DHT22;1441;48.886;8.728;2022-10-15T06:06:24;15.20;99.90
2867;DHT22;1441;48.886;8.728;2022-10-15T06:08:53;15.30;99.90
2867;DHT22;1441;48.886;8.728;2022-10-15T06:11:32;15.30;99.90
2867;DHT22;1441;48.886;8.728;2022-10-15T06:14:07;15.30;99.90
2867;DHT22;1441;48.886;8.728;2022-10-15T06:16:41;15.30;99.90
2867;DHT22;1441;48.886;8.728;2022-10-15T06:19:21;15.30;99.90
2867;DHT22;1441;48.886;8.728;2022-10-15T06:21:47;15.20;99.90
2867;DHT22;1441;48.886;8.728;2022-10-15T06:24:21;15.20;99.90
2867;DHT22;1441;48.886;8.728;2022-10-15T06:26:48;15.20;99.90
2867;DHT22;1441;48.886;8.728;2022-10-15T06:29:20;15.20;99.90
2867;DHT22;1441;48.886;8.728;2022-10-15T06:31:46;15.20;99.90
2867;DHT22;1441;48.886;8.728;2022-10-15T06:34:12;15.20;99.90
2867;DHT22;1441;48.886;8.728;2022-10-15T06:36:37;15.20;99.90
2867;DHT22;1441;48.886;8.728;2022-10-15T06:39:03;15.20;99.90
2867;DHT22;1441;48.886;8.728;2022-10-15T06:41:28;15.30;99.90
2867;DHT22;1441;48.886;8.728;2022-10-15T06:43:54;15.30;99.90
2867;DHT22;1441;48.886;8.728;2022-10-15T06:46:19;15.30;99.90
2867;DHT22;1441;48.886;8.728;2022-10-15T06:48:45;15.30;99.90
2867;DHT22;1441;48.886;8.728;2022-10-15T06:51:11;15.30;99.90
2867;DHT22;1441;48.886;8.728;2022-10-15T06:53:36;15.40;99.90
2867;DHT22;1441;48.886;8.728;2022-10-15T06:56:05;15.40;99.90
2867;DHT22;1441;48.886;8.728;2022-10-15T06:58:30;15.40;99.90
2867;DHT22;1441;48.886;8.728;2022-10-15T07:01:04;15.40;99.90
2867;DHT22;1441;48.886;8.728;2022-10-15T07:03:30;15.50;99.90
2867;DHT22;1441;48.886;8.728;2022-10-15T07:06:01;15.60;99.90
2867;DHT22;1441;48.886;8.728;2022-10-15T07:08:27;15.60;99.90
2867;DHT22;1441;48.886;8.728;2022-10-15T07:10:53;15.60;99.90
2867;DHT22;1441;48.886;8.728;2022-10-15T07:13:18;15.60;99.90
2867;DHT22;1441;48.886;8.728;2022-10-15T07:15:44;15.60;99.90
2867;DHT22;1441;48.886;8.728;2022-10-15T07:18:10;15.60;99.90
2867;DHT22;1441;48.886;8.728;2022-10-15T07:20:36;15.60;99.90
2867;DHT22;1441;48.886;8.728;2022-10-15T07:23:02;15.60;99.90
2867;DHT22;1441;48.886;8.728;2022-10-15T07:25:27;15.60;99.90
2867;DHT22;1441;48.886;8.728;2022-10-15T07:27:53;15.60;99.90
2867;DHT22;1441;48.886;8.728;2022-10-15T07:30:21;15.60;99.90
2867;DHT22;1441;48.886;8.728;2022-10-15T07:32:47;15.70;99.90
2867;DHT22;1441;48.886;8.728;2022-10-15T07:35:12;15.60;99.90
2867;DHT22;1441;48.886;8.728;2022-10-15T07:37:39;15.50;99.90
2867;DHT22;1441;48.886;8.728;2022-10-15T07:40:06;15.60;99.90
2867;DHT22;1441;48.886;8.728;2022-10-15T07:42:31;15.50;99.90
2867;DHT22;1441;48.886;8.728;2022-10-15T07:44:57;15.50;99.90
2867;DHT22;1441;48.886;8.728;2022-10-15T07:47:23;15.60;99.90
2867;DHT22;1441;48.886;8.728;2022-10-15T07:49:49;15.60;99.90
2867;DHT22;1441;48.886;8.728;2022-10-15T07:52:14;15.60;99.90
2867;DHT22;1441;48.886;8.728;2022-10-15T07:54:40;15.60;99.90
2867;DHT22;1441;48.886;8.728;2022-10-15T07:57:06;15.70;99.90
2867;DHT22;1441;48.886;8.728;2022-10-15T07:59:32;15.70;99.90
2867;DHT22;1441;48.886;8.728;2022-10-15T08:01:58;15.80;99.90
2867;DHT22;1441;48.886;8.728;2022-10-15T08:04:23;16.00;99.90
2867;DHT22;1441;48.886;8.728;2022-10-15T08:06:49;16.10;99.90
2867;DHT22;1441;48.886;8.728;2022-10-15T08:09:15;16.20;99.90
2867;DHT22;1441;48.886;8.728;2022-10-15T08:11:40;16.20;99.90
2867;DHT22;1441;48.886;8.728;2022-10-15T08:14:06;16.20;99.90
2867;DHT22;1441;48.886;8.728;2022-10-15T08:16:31;16.20;99.90
2867;DHT22;1441;48.886;8.728;2022-10-15T08:18:57;16.20;99.90
2867;DHT22;1441;48.886;8.728;2022-10-15T08:21:23;16.20;99.90
2867;DHT22;1441;48.886;8.728;2022-10-15T08:23:49;16.20;99.90
2867;DHT22;1441;48.886;8.728;2022-10-15T08:26:15;16.20;99.90
2867;DHT22;1441;48.886;8.728;2022-10-15T08:28:41;16.30;99.90
2867;DHT22;1441;48.886;8.728;2022-10-15T08:31:06;16.40;99.90
2867;DHT22;1441;48.886;8.728;2022-10-15T08:33:35;16.40;99.90
2867;DHT22;1441;48.886;8.728;2022-10-15T08:36:04;16.40;99.90
2867;DHT22;1441;48.886;8.728;2022-10-15T08:38:30;16.30;99.90
2867;DHT22;1441;48.886;8.728;2022-10-15T08:40:58;16.40;99.90
2867;DHT22;1441;48.886;8.728;2022-10-15T08:43:29;16.60;99.90
2867;DHT22;1441;48.886;8.728;2022-10-15T08:46:00;16.60;99.90
2867;DHT22;1441;48.886;8.728;2022-10-15T08:48:33;16.60;99.90
2867;DHT22;1441;48.886;8.728;2022-10-15T08:51:18;16.60;99.90
2867;DHT22;1441;48.886;8.728;2022-10-15T08:53:57;16.70;99.90
2867;DHT22;1441;48.886;8.728;2022-10-15T08:56:29;16.70;99.90
2867;DHT22;1441;48.886;8.728;2022-10-15T08:59:29;16.80;99.90
2867;DHT22;1441;48.886;8.728;2022-10-15T09:02:03;16.60;99.90
2867;DHT22;1441;48.886;8.728;2022-10-15T09:04:37;16.50;99.90
2867;DHT22;1441;48.886;8.728;2022-10-15T09:10:15;16.50;99.90
2867;DHT22;1441;48.886;8.728;2022-10-15T09:12:47;16.50;99.90
2867;DHT22;1441;48.886;8.728;2022-10-15T09:15:17;16.50;99.90
2867;DHT22;1441;48.886;8.728;2022-10-15T09:17:47;16.50;99.90
2867;DHT22;1441;48.886;8.728;2022-10-15T09:20:18;16.50;99.90
2867;DHT22;1441;48.886;8.728;2022-10-15T09:22:48;16.50;99.90
2867;DHT22;1441;48.886;8.728;2022-10-15T09:25:18;16.50;99.90
2867;DHT22;1441;48.886;8.728;2022-10-15T09:27:46;16.50;99.90
2867;DHT22;1441;48.886;8.728;2022-10-15T09:33:24;16.50;99.90
2867;DHT22;1441;48.886;8.728;2022-10-15T09:35:59;16.50;99.90
2867;DHT22;1441;48.886;8.728;2022-10-15T09:38:32;16.50;99.90
2867;DHT22;1441;48.886;8.728;2022-10-15T09:41:11;16.50;99.90
2867;DHT22;1441;48.886;8.728;2022-10-15T09:43:42;16.60;99.90
2867;DHT22;1441;48.886;8.728;2022-10-15T09:46:08;16.80;99.90
2867;DHT22;1441;48.886;8.728;2022-10-15T09:48:40;17.30;99.90
2867;DHT22;1441;48.886;8.728;2022-10-15T09:51:30;17.40;99.90
2867;DHT22;1441;48.886;8.728;2022-10-15T09:54:12;17.50;99.90
2867;DHT22;1441;48.886;8.728;2022-10-15T09:56:47;17.90;99.90
2867;DHT22;1441;48.886;8.728;2022-10-15T09:59:16;18.00;99.90
2867;DHT22;1441;48.886;8.728;2022-10-15T10:01:59;18.10;99.90
2867;DHT22;1441;48.886;8.728;2022-10-15T10:04:33;18.10;99.90
2867;DHT22;1441;48.886;8.728;2022-10-15T10:07:05;18.40;99.90
2867;DHT22;1441;48.886;8.728;2022-10-15T10:09:48;18.30;99.90
2867;DHT22;1441;48.886;8.728;2022-10-15T10:12:38;18.30;99.90
2867;DHT22;1441;48.886;8.728;2022-10-15T10:15:28;18.50;99.90
2867;DHT22;1441;48.886;8.728;2022-10-15T10:17:55;18.50;99.90
2867;DHT22;1441;48.886;8.728;2022-10-15T10:20:25;18.30;99.90
2867;DHT22;1441;48.886;8.728;2022-10-15T10:22:56;18.20;99.90
2867;DHT22;1441;48.886;8.728;2022-10-15T10:25:34;18.00;99.90
2867;DHT22;1441;48.886;8.728;2022-10-15T10:28:18;18.00;99.90
2867;DHT22;1441;48.886;8.728;2022-10-15T10:30:58;18.20;99.90
2867;DHT22;1441;48.886;8.728;2022-10-15T10:33:43;18.20;99.90
2867;DHT22;1441;48.886;8.728;2022-10-15T10:36:29;18.30;99.90
2867;DHT22;1441;48.886;8.728;2022-10-15T10:44:22;18.40;99.90
2867;DHT22;1441;48.886;8.728;2022-10-15T10:47:14;18.30;99.90
2867;DHT22;1441;48.886;8.728;2022-10-15T10:49:53;18.30;99.90
2867;DHT22;1441;48.886;8.728;2022-10-15T10:52:31;18.40;98.90
2867;DHT22;1441;48.886;8.728;2022-10-15T10:54:58;18.30;99.90
2867;DHT22;1441;48.886;8.728;2022-10-15T11:00:20;18.50;99.70
2867;DHT22;1441;48.886;8.728;2022-10-15T11:02:48;18.50;99.90
2867;DHT22;1441;48.886;8.728;2022-10-15T11:05:18;18.50;98.70
2867;DHT22;1441;48.886;8.728;2022-10-15T11:10:31;18.70;99.40
2867;DHT22;1441;48.886;8.728;2022-10-15T11:13:25;19.10;96.50
2867;DHT22;1441;48.886;8.728;2022-10-15T11:16:03;19.10;97.10
2867;DHT22;1441;48.886;8.728;2022-10-15T11:24:28;19.20;95.80
2867;DHT22;1441;48.886;8.728;2022-10-15T11:30:09;19.60;94.70
2867;DHT22;1441;48.886;8.728;2022-10-15T11:35:58;19.60;92.30
2867;DHT22;1441;48.886;8.728;2022-10-15T11:41:20;18.90;93.90
2867;DHT22;1441;48.886;8.728;2022-10-15T11:46:38;19.00;94.50
2867;DHT22;1441;48.886;8.728;2022-10-15T11:52:12;18.50;97.20
2867;DHT22;1441;48.886;8.728;2022-10-15T11:55:00;18.30;97.20
2867;DHT22;1441;48.886;8.728;2022-10-15T11:57:27;18.00;97.20
2867;DHT22;1441;48.886;8.728;2022-10-15T12:00:15;18.00;96.30
2867;DHT22;1441;48.886;8.728;2022-10-15T12:02:46;18.00;97.90
2867;DHT22;1441;48.886;8.728;2022-10-15T12:05:18;18.10;97.10
2867;DHT22;1441;48.886;8.728;2022-10-15T12:07:47;18.30;96.50
2867;DHT22;1441;48.886;8.728;2022-10-15T12:13:38;18.10;97.10
2867;DHT22;1441;48.886;8.728;2022-10-15T12:16:25;18.20;97.00
2867;DHT22;1441;48.886;8.728;2022-10-15T12:19:19;18.20;96.90
2867;DHT22;1441;48.886;8.728;2022-10-15T12:22:02;18.30;96.70
2867;DHT22;1441;48.886;8.728;2022-10-15T12:29:52;18.00;99.80
2867;DHT22;1441;48.886;8.728;2022-10-15T12:32:45;17.90;99.10
2867;DHT22;1441;48.886;8.728;2022-10-15T12:37:42;18.30;97.00
2867;DHT22;1441;48.886;8.728;2022-10-15T12:40:31;18.20;97.90
2867;DHT22;1441;48.886;8.728;2022-10-15T12:43:00;18.00;98.30
2867;DHT22;1441;48.886;8.728;2022-10-15T12:45:39;17.90;99.60
2867;DHT22;1441;48.886;8.728;2022-10-15T12:50:34;18.00;99.10
2867;DHT22;1441;48.886;8.728;2022-10-15T12:56:12;18.00;99.20
2867;DHT22;1441;48.886;8.728;2022-10-15T13:11:46;17.90;99.90
2867;DHT22;1441;48.886;8.728;2022-10-15T13:14:36;18.00;99.90
2867;DHT22;1441;48.886;8.728;2022-10-15T13:17:18;18.00;99.90
2867;DHT22;1441;48.886;8.728;2022-10-15T13:19:55;17.90;99.90
2867;DHT22;1441;48.886;8.728;2022-10-15T13:22:25;17.90;99.90
2867;DHT22;1441;48.886;8.728;2022-10-15T13:24:51;17.80;99.90
2867;DHT22;1441;48.886;8.728;2022-10-15T13:27:34;17.80;99.90
2867;DHT22;1441;48.886;8.728;2022-10-15T13:30:10;17.70;99.90
2867;DHT22;1441;48.886;8.728;2022-10-15T13:32:49;17.80;99.90
2867;DHT22;1441;48.886;8.728;2022-10-15T13:35:21;17.80;99.90
2867;DHT22;1441;48.886;8.728;2022-10-15T13:37:47;18.10;98.60
2867;DHT22;1441;48.886;8.728;2022-10-15T13:40:22;18.00;99.70
2867;DHT22;1441;48.886;8.728;2022-10-15T13:43:17;17.90;99.90
2867;DHT22;1441;48.886;8.728;2022-10-15T13:45:53;17.90;99.90
2867;DHT22;1441;48.886;8.728;2022-10-15T13:48:22;17.70;99.90
2867;DHT22;1441;48.886;8.728;2022-10-15T13:50:51;17.70;99.90
2867;DHT22;1441;48.886;8.728;2022-10-15T13:56:00;17.50;99.90
2867;DHT22;1441;48.886;8.728;2022-10-15T13:58:32;17.40;99.90
2867;DHT22;1441;48.886;8.728;2022-10-15T14:01:07;17.40;99.90
2867;DHT22;1441;48.886;8.728;2022-10-15T14:03:36;17.50;99.90
2867;DHT22;1441;48.886;8.728;2022-10-15T14:06:23;17.50;99.90
2867;DHT22;1441;48.886;8.728;2022-10-15T14:08:51;17.50;99.90
2867;DHT22;1441;48.886;8.728;2022-10-15T14:11:18;17.50;99.90
2867;DHT22;1441;48.886;8.728;2022-10-15T14:13:48;17.50;99.90
2867;DHT22;1441;48.886;8.728;2022-10-15T14:16:21;17.60;99.90
2867;DHT22;1441;48.886;8.728;2022-10-15T14:18:53;17.70;99.90
2867;DHT22;1441;48.886;8.728;2022-10-15T14:21:22;17.80;99.90
2867;DHT22;1441;48.886;8.728;2022-10-15T14:24:14;18.00;99.90
2867;DHT22;1441;48.886;8.728;2022-10-15T14:26:40;18.10;99.90
2867;DHT22;1441;48.886;8.728;2022-10-15T14:29:15;18.20;99.90
2867;DHT22;1441;48.886;8.728;2022-10-15T14:31:46;18.00;99.90
2867;DHT22;1441;48.886;8.728;2022-10-15T14:37:00;18.00;99.90
2867;DHT22;1441;48.886;8.728;2022-10-15T14:39:33;18.20;99.90
2867;DHT22;1441;48.886;8.728;2022-10-15T14:42:21;18.20;99.90
2867;DHT22;1441;48.886;8.728;2022-10-15T14:44:49;18.20;99.90
2867;DHT22;1441;48.886;8.728;2022-10-15T14:47:22;18.10;99.90
2867;DHT22;1441;48.886;8.728;2022-10-15T14:49:51;18.20;99.90
2867;DHT22;1441;48.886;8.728;2022-10-15T14:52:18;18.20;99.90
2867;DHT22;1441;48.886;8.728;2022-10-15T14:57:23;18.00;99.90
2867;DHT22;1441;48.886;8.728;2022-10-15T14:59:54;18.00;99.90
2867;DHT22;1441;48.886;8.728;2022-10-15T15:02:22;18.00;99.90
2867;DHT22;1441;48.886;8.728;2022-10-15T15:07:38;18.00;99.90
2867;DHT22;1441;48.886;8.728;2022-10-15T15:10:04;18.00;99.90
2867;DHT22;1441;48.886;8.728;2022-10-15T15:12:31;18.00;99.90
2867;DHT22;1441;48.886;8.728;2022-10-15T15:14:57;17.90;99.90
2867;DHT22;1441;48.886;8.728;2022-10-15T15:17:25;17.80;99.90
2867;DHT22;1441;48.886;8.728;2022-10-15T15:19:52;17.80;99.90
2867;DHT22;1441;48.886;8.728;2022-10-15T15:22:34;17.70;99.90
2867;DHT22;1441;48.886;8.728;2022-10-15T15:25:22;17.70;99.90
2867;DHT22;1441;48.886;8.728;2022-10-15T15:27:49;17.70;99.90
2867;DHT22;1441;48.886;8.728;2022-10-15T15:30:20;17.70;99.90
2867;DHT22;1441;48.886;8.728;2022-10-15T15:32:46;17.60;99.90
2867;DHT22;1441;48.886;8.728;2022-10-15T15:37:53;17.60;99.90
2867;DHT22;1441;48.886;8.728;2022-10-15T15:40:19;17.50;99.90
2867;DHT22;1441;48.886;8.728;2022-10-15T15:42:45;17.50;99.90
2867;DHT22;1441;48.886;8.728;2022-10-15T15:45:20;17.50;99.90
2867;DHT22;1441;48.886;8.728;2022-10-15T15:47:46;17.50;99.90
2867;DHT22;1441;48.886;8.728;2022-10-15T15:50:12;17.50;99.90
2867;DHT22;1441;48.886;8.728;2022-10-15T15:52:38;17.50;99.90
2867;DHT22;1441;48.886;8.728;2022-10-15T15:55:04;17.50;99.90
2867;DHT22;1441;48.886;8.728;2022-10-15T15:57:29;17.60;99.90
2867;DHT22;1441;48.886;8.728;2022-10-15T15:59:55;17.50;99.90
2867;DHT22;1441;48.886;8.728;2022-10-15T16:02:20;17.50;99.90
2867;DHT22;1441;48.886;8.728;2022-10-15T16:04:46;17.40;99.90
2867;DHT22;1441;48.886;8.728;2022-10-15T16:07:11;17.30;99.90
2867;DHT22;1441;48.886;8.728;2022-10-15T16:09:37;17.40;99.90
2867;DHT22;1441;48.886;8.728;2022-10-15T16:12:03;17.40;99.90
2867;DHT22;1441;48.886;8.728;2022-10-15T16:14:29;17.30;99.90
2867;DHT22;1441;48.886;8.728;2022-10-15T16:16:54;17.20;99.90
2867;DHT22;1441;48.886;8.728;2022-10-15T16:19:20;17.20;99.90
2867;DHT22;1441;48.886;8.728;2022-10-15T16:21:45;17.10;99.90
2867;DHT22;1441;48.886;8.728;2022-10-15T16:24:11;17.10;99.90
2867;DHT22;1441;48.886;8.728;2022-10-15T16:26:36;17.10;99.90
2867;DHT22;1441;48.886;8.728;2022-10-15T16:29:02;17.10;99.90
2867;DHT22;1441;48.886;8.728;2022-10-15T16:31:28;17.10;99.90
2867;DHT22;1441;48.886;8.728;2022-10-15T16:33:54;17.10;99.90
2867;DHT22;1441;48.886;8.728;2022-10-15T16:36:20;17.10;99.90
2867;DHT22;1441;48.886;8.728;2022-10-15T16:38:46;17.10;99.90
2867;DHT22;1441;48.886;8.728;2022-10-15T16:41:13;17.00;99.90
2867;DHT22;1441;48.886;8.728;2022-10-15T16:43:39;17.00;99.90
2867;DHT22;1441;48.886;8.728;2022-10-15T16:46:04;17.10;99.90
2867;DHT22;1441;48.886;8.728;2022-10-15T16:48:31;17.00;99.90
2867;DHT22;1441;48.886;8.728;2022-10-15T16:51:08;17.00;99.90
2867;DHT22;1441;48.886;8.728;2022-10-15T16:53:36;16.90;99.90
2867;DHT22;1441;48.886;8.728;2022-10-15T16:58:29;16.90;99.90
2867;DHT22;1441;48.886;8.728;2022-10-15T17:01:03;16.80;99.90
2867;DHT22;1441;48.886;8.728;2022-10-15T17:03:31;16.80;99.90
2867;DHT22;1441;48.886;8.728;2022-10-15T17:05:58;16.80;99.90
2867;DHT22;1441;48.886;8.728;2022-10-15T17:08:27;16.90;99.90
2867;DHT22;1441;48.886;8.728;2022-10-15T17:10:53;16.80;99.90
2867;DHT22;1441;48.886;8.728;2022-10-15T17:13:18;16.80;99.90
2867;DHT22;1441;48.886;8.728;2022-10-15T17:15:45;16.60;99.90
2867;DHT22;1441;48.886;8.728;2022-10-15T17:18:10;16.70;99.90
2867;DHT22;1441;48.886;8.728;2022-10-15T17:20:45;16.60;99.90
2867;DHT22;1441;48.886;8.728;2022-10-15T17:23:11;16.50;99.90
2867;DHT22;1441;48.886;8.728;2022-10-15T17:25:36;16.60;99.90
2867;DHT22;1441;48.886;8.728;2022-10-15T17:28:02;16.80;99.90
2867;DHT22;1441;48.886;8.728;2022-10-15T17:30:27;16.80;99.90
2867;DHT22;1441;48.886;8.728;2022-10-15T17:32:53;16.70;99.90
2867;DHT22;1441;48.886;8.728;2022-10-15T17:35:18;16.60;99.90
2867;DHT22;1441;48.886;8.728;2022-10-15T17:37:45;16.60;99.90
2867;DHT22;1441;48.886;8.728;2022-10-15T17:40:12;16.50;99.90
2867;DHT22;1441;48.886;8.728;2022-10-15T17:42:38;16.50;99.90
2867;DHT22;1441;48.886;8.728;2022-10-15T17:45:09;16.50;99.90
2867;DHT22;1441;48.886;8.728;2022-10-15T17:47:39;16.50;99.90
2867;DHT22;1441;48.886;8.728;2022-10-15T17:50:05;16.50;99.90
2867;DHT22;1441;48.886;8.728;2022-10-15T17:52:31;16.70;99.90
2867;DHT22;1441;48.886;8.728;2022-10-15T17:54:57;16.70;99.90
2867;DHT22;1441;48.886;8.728;2022-10-15T17:57:22;16.60;99.90
2867;DHT22;1441;48.886;8.728;2022-10-15T17:59:48;16.70;99.90
2867;DHT22;1441;48.886;8.728;2022-10-15T18:02:14;16.70;99.90
2867;DHT22;1441;48.886;8.728;2022-10-15T18:04:39;16.90;99.90